sensor_id;sensor_type;location;lat;lon;timestamp;P1;durP1;ratioP1;P2;durP2;ratioP2
46429;SDS011;32131;53.454;-6.180;2023-07-28T00:01:50;1.48;;;0.65;;
46429;SDS011;32131;53.454;-6.180;2023-07-28T00:04:18;2.97;;;0.50;;
46429;SDS011;32131;53.454;-6.180;2023-07-28T00:06:46;2.05;;;0.63;;
46429;SDS011;32131;53.454;-6.180;2023-07-28T00:09:16;2.22;;;0.73;;
46429;SDS011;32131;53.454;-6.180;2023-07-28T00:11:44;2.45;;;0.73;;
46429;SDS011;32131;53.454;-6.180;2023-07-28T00:14:12;0.68;;;0.43;;
46429;SDS011;32131;53.454;-6.180;2023-07-28T00:16:40;0.63;;;0.50;;
46429;SDS011;32131;53.454;-6.180;2023-07-28T00:19:10;2.92;;;0.95;;
46429;SDS011;32131;53.454;-6.180;2023-07-28T00:21:38;1.15;;;0.60;;
46429;SDS011;32131;53.454;-6.180;2023-07-28T00:24:06;1.27;;;0.50;;
46429;SDS011;32131;53.454;-6.180;2023-07-28T00:26:36;1.85;;;0.60;;
46429;SDS011;32131;53.454;-6.180;2023-07-28T00:29:05;1.83;;;0.68;;
46429;SDS011;32131;53.454;-6.180;2023-07-28T00:31:34;2.17;;;0.50;;
46429;SDS011;32131;53.454;-6.180;2023-07-28T00:34:03;1.38;;;0.68;;
46429;SDS011;32131;53.454;-6.180;2023-07-28T00:36:31;2.85;;;0.60;;
46429;SDS011;32131;53.454;-6.180;2023-07-28T00:39:00;0.63;;;0.40;;
46429;SDS011;32131;53.454;-6.180;2023-07-28T00:41:28;1.48;;;0.60;;
46429;SDS011;32131;53.454;-6.180;2023-07-28T00:43:58;0.60;;;0.50;;
46429;SDS011;32131;53.454;-6.180;2023-07-28T00:46:26;1.90;;;0.60;;
46429;SDS011;32131;53.454;-6.180;2023-07-28T00:48:54;2.83;;;0.40;;
46429;SDS011;32131;53.454;-6.180;2023-07-28T00:51:23;1.58;;;0.47;;
46429;SDS011;32131;53.454;-6.180;2023-07-28T00:53:51;1.33;;;0.38;;
46429;SDS011;32131;53.454;-6.180;2023-07-28T00:56:20;0.57;;;0.38;;
46429;SDS011;32131;53.454;-6.180;2023-07-28T00:58:49;0.85;;;0.43;;
46429;SDS011;32131;53.454;-6.180;2023-07-28T01:01:18;1.45;;;0.65;;
46429;SDS011;32131;53.454;-6.180;2023-07-28T01:03:49;1.08;;;0.55;;
46429;SDS011;32131;53.454;-6.180;2023-07-28T01:06:18;1.55;;;0.50;;
46429;SDS011;32131;53.454;-6.180;2023-07-28T01:08:56;1.55;;;0.68;;
46429;SDS011;32131;53.454;-6.180;2023-07-28T01:11:26;0.50;;;0.30;;
46429;SDS011;32131;53.454;-6.180;2023-07-28T01:13:54;0.75;;;0.35;;
46429;SDS011;32131;53.454;-6.180;2023-07-28T01:16:23;0.82;;;0.47;;
46429;SDS011;32131;53.454;-6.180;2023-07-28T01:18:54;2.80;;;0.63;;
46429;SDS011;32131;53.454;-6.180;2023-07-28T01:21:25;2.40;;;0.70;;
46429;SDS011;32131;53.454;-6.180;2023-07-28T01:23:59;5.63;;;0.65;;
46429;SDS011;32131;53.454;-6.180;2023-07-28T01:26:35;1.33;;;0.68;;
46429;SDS011;32131;53.454;-6.180;2023-07-28T01:29:04;1.25;;;0.52;;
46429;SDS011;32131;53.454;-6.180;2023-07-28T01:31:33;1.58;;;0.45;;
46429;SDS011;32131;53.454;-6.180;2023-07-28T01:34:02;0.75;;;0.40;;
46429;SDS011;32131;53.454;-6.180;2023-07-28T01:36:30;0.90;;;0.50;;
46429;SDS011;32131;53.454;-6.180;2023-07-28T01:38:59;1.27;;;0.65;;
46429;SDS011;32131;53.454;-6.180;2023-07-28T01:41:27;3.78;;;0.68;;
46429;SDS011;32131;53.454;-6.180;2023-07-28T01:43:57;1.30;;;0.57;;
46429;SDS011;32131;53.454;-6.180;2023-07-28T01:46:25;1.63;;;0.60;;
46429;SDS011;32131;53.454;-6.180;2023-07-28T01:48:54;4.10;;;0.88;;
46429;SDS011;32131;53.454;-6.180;2023-07-28T01:51:22;1.85;;;0.75;;
46429;SDS011;32131;53.454;-6.180;2023-07-28T01:53:50;1.33;;;0.65;;
46429;SDS011;32131;53.454;-6.180;2023-07-28T01:56:18;4.60;;;0.90;;
46429;SDS011;32131;53.454;-6.180;2023-07-28T01:58:46;3.90;;;0.80;;
46429;SDS011;32131;53.454;-6.180;2023-07-28T02:01:16;1.50;;;0.70;;
46429;SDS011;32131;53.454;-6.180;2023-07-28T02:03:48;2.22;;;0.70;;
46429;SDS011;32131;53.454;-6.180;2023-07-28T02:06:17;5.18;;;0.90;;
46429;SDS011;32131;53.454;-6.180;2023-07-28T02:08:45;2.83;;;1.17;;
46429;SDS011;32131;53.454;-6.180;2023-07-28T02:11:13;6.95;;;1.13;;
46429;SDS011;32131;53.454;-6.180;2023-07-28T02:13:41;5.18;;;0.80;;
46429;SDS011;32131;53.454;-6.180;2023-07-28T02:16:09;4.28;;;1.00;;
46429;SDS011;32131;53.454;-6.180;2023-07-28T02:18:39;3.67;;;0.85;;
46429;SDS011;32131;53.454;-6.180;2023-07-28T02:21:08;2.08;;;1.00;;
46429;SDS011;32131;53.454;-6.180;2023-07-28T02:23:36;2.13;;;1.00;;
46429;SDS011;32131;53.454;-6.180;2023-07-28T02:26:08;1.40;;;0.95;;
46429;SDS011;32131;53.454;-6.180;2023-07-28T02:28:36;1.25;;;0.73;;
46429;SDS011;32131;53.454;-6.180;2023-07-28T02:31:05;4.32;;;1.13;;
46429;SDS011;32131;53.454;-6.180;2023-07-28T02:33:33;2.40;;;0.90;;
46429;SDS011;32131;53.454;-6.180;2023-07-28T02:36:04;3.83;;;1.05;;
46429;SDS011;32131;53.454;-6.180;2023-07-28T02:38:33;6.07;;;1.00;;
46429;SDS011;32131;53.454;-6.180;2023-07-28T02:41:01;2.72;;;0.77;;
46429;SDS011;32131;53.454;-6.180;2023-07-28T02:43:31;2.20;;;0.77;;
46429;SDS011;32131;53.454;-6.180;2023-07-28T02:45:59;0.90;;;0.63;;
46429;SDS011;32131;53.454;-6.180;2023-07-28T02:48:28;5.45;;;0.85;;
46429;SDS011;32131;53.454;-6.180;2023-07-28T02:50:56;1.95;;;0.90;;
46429;SDS011;32131;53.454;-6.180;2023-07-28T02:53:26;1.58;;;0.80;;
46429;SDS011;32131;53.454;-6.180;2023-07-28T02:55:57;2.55;;;0.65;;
46429;SDS011;32131;53.454;-6.180;2023-07-28T02:58:25;3.17;;;0.90;;
46429;SDS011;32131;53.454;-6.180;2023-07-28T03:00:53;4.72;;;0.93;;
46429;SDS011;32131;53.454;-6.180;2023-07-28T03:03:22;2.90;;;1.33;;
46429;SDS011;32131;53.454;-6.180;2023-07-28T03:05:51;1.58;;;0.88;;
46429;SDS011;32131;53.454;-6.180;2023-07-28T03:08:20;4.63;;;0.95;;
46429;SDS011;32131;53.454;-6.180;2023-07-28T03:10:50;1.60;;;0.88;;
46429;SDS011;32131;53.454;-6.180;2023-07-28T03:13:23;3.55;;;1.20;;
46429;SDS011;32131;53.454;-6.180;2023-07-28T03:15:51;4.35;;;1.08;;
46429;SDS011;32131;53.454;-6.180;2023-07-28T03:18:19;1.42;;;0.90;;
46429;SDS011;32131;53.454;-6.180;2023-07-28T03:20:47;8.20;;;1.13;;
46429;SDS011;32131;53.454;-6.180;2023-07-28T03:23:16;3.67;;;0.80;;
46429;SDS011;32131;53.454;-6.180;2023-07-28T03:25:44;2.35;;;1.10;;
46429;SDS011;32131;53.454;-6.180;2023-07-28T03:28:13;5.30;;;1.10;;
46429;SDS011;32131;53.454;-6.180;2023-07-28T03:30:43;2.13;;;1.00;;
46429;SDS011;32131;53.454;-6.180;2023-07-28T03:33:11;4.40;;;0.90;;
46429;SDS011;32131;53.454;-6.180;2023-07-28T03:35:39;1.88;;;0.77;;
46429;SDS011;32131;53.454;-6.180;2023-07-28T03:38:08;3.78;;;1.40;;
46429;SDS011;32131;53.454;-6.180;2023-07-28T03:40:36;4.22;;;0.98;;
46429;SDS011;32131;53.454;-6.180;2023-07-28T03:43:04;4.85;;;1.27;;
46429;SDS011;32131;53.454;-6.180;2023-07-28T03:45:34;3.10;;;1.10;;
46429;SDS011;32131;53.454;-6.180;2023-07-28T03:48:02;5.93;;;1.15;;
46429;SDS011;32131;53.454;-6.180;2023-07-28T03:50:30;2.03;;;0.80;;
46429;SDS011;32131;53.454;-6.180;2023-07-28T03:52:59;4.68;;;1.10;;
46429;SDS011;32131;53.454;-6.180;2023-07-28T03:55:27;3.33;;;0.90;;
46429;SDS011;32131;53.454;-6.180;2023-07-28T03:57:56;5.10;;;1.17;;
46429;SDS011;32131;53.454;-6.180;2023-07-28T04:00:24;3.50;;;1.05;;
46429;SDS011;32131;53.454;-6.180;2023-07-28T04:02:54;5.38;;;1.10;;
46429;SDS011;32131;53.454;-6.180;2023-07-28T04:05:22;4.07;;;0.77;;
46429;SDS011;32131;53.454;-6.180;2023-07-28T04:07:50;3.63;;;1.15;;
46429;SDS011;32131;53.454;-6.180;2023-07-28T04:10:18;4.70;;;0.95;;
46429;SDS011;32131;53.454;-6.180;2023-07-28T04:12:47;2.85;;;1.02;;
46429;SDS011;32131;53.454;-6.180;2023-07-28T04:15:16;4.55;;;1.20;;
46429;SDS011;32131;53.454;-6.180;2023-07-28T04:17:44;5.45;;;1.35;;
46429;SDS011;32131;53.454;-6.180;2023-07-28T04:20:14;5.03;;;1.10;;
46429;SDS011;32131;53.454;-6.180;2023-07-28T04:22:43;10.20;;;1.20;;
46429;SDS011;32131;53.454;-6.180;2023-07-28T04:25:13;5.45;;;1.23;;
46429;SDS011;32131;53.454;-6.180;2023-07-28T04:27:41;9.40;;;1.30;;
46429;SDS011;32131;53.454;-6.180;2023-07-28T04:30:09;1.90;;;0.90;;
46429;SDS011;32131;53.454;-6.180;2023-07-28T04:32:38;1.98;;;0.68;;
46429;SDS011;32131;53.454;-6.180;2023-07-28T04:35:06;4.30;;;0.73;;
46429;SDS011;32131;53.454;-6.180;2023-07-28T04:37:36;2.17;;;0.80;;
46429;SDS011;32131;53.454;-6.180;2023-07-28T04:40:05;3.83;;;1.38;;
46429;SDS011;32131;53.454;-6.180;2023-07-28T04:45:03;1.58;;;0.82;;
46429;SDS011;32131;53.454;-6.180;2023-07-28T04:47:32;6.97;;;0.88;;
46429;SDS011;32131;53.454;-6.180;2023-07-28T04:50:00;6.28;;;1.15;;
46429;SDS011;32131;53.454;-6.180;2023-07-28T04:52:28;3.05;;;1.30;;
46429;SDS011;32131;53.454;-6.180;2023-07-28T04:54:57;3.00;;;1.20;;
46429;SDS011;32131;53.454;-6.180;2023-07-28T04:57:26;2.25;;;1.00;;
46429;SDS011;32131;53.454;-6.180;2023-07-28T04:59:55;2.60;;;1.33;;
46429;SDS011;32131;53.454;-6.180;2023-07-28T05:02:25;3.78;;;1.00;;
46429;SDS011;32131;53.454;-6.180;2023-07-28T05:04:53;4.97;;;1.10;;
46429;SDS011;32131;53.454;-6.180;2023-07-28T05:07:21;5.65;;;1.00;;
46429;SDS011;32131;53.454;-6.180;2023-07-28T05:09:49;3.53;;;0.93;;
46429;SDS011;32131;53.454;-6.180;2023-07-28T05:12:20;4.85;;;1.38;;
46429;SDS011;32131;53.454;-6.180;2023-07-28T05:14:49;5.70;;;1.10;;
46429;SDS011;32131;53.454;-6.180;2023-07-28T05:17:17;2.90;;;1.10;;
46429;SDS011;32131;53.454;-6.180;2023-07-28T05:19:46;4.43;;;0.60;;
46429;SDS011;32131;53.454;-6.180;2023-07-28T05:22:14;1.35;;;0.57;;
46429;SDS011;32131;53.454;-6.180;2023-07-28T05:24:50;2.53;;;1.15;;
46429;SDS011;32131;53.454;-6.180;2023-07-28T05:27:21;2.30;;;1.20;;
46429;SDS011;32131;53.454;-6.180;2023-07-28T05:29:50;5.07;;;1.00;;
46429;SDS011;32131;53.454;-6.180;2023-07-28T05:32:18;5.18;;;1.33;;
46429;SDS011;32131;53.454;-6.180;2023-07-28T05:34:48;1.92;;;1.15;;
46429;SDS011;32131;53.454;-6.180;2023-07-28T05:37:16;2.80;;;1.00;;
46429;SDS011;32131;53.454;-6.180;2023-07-28T05:39:44;3.83;;;1.00;;
46429;SDS011;32131;53.454;-6.180;2023-07-28T05:42:13;8.48;;;0.98;;
46429;SDS011;32131;53.454;-6.180;2023-07-28T05:44:45;2.08;;;1.00;;
46429;SDS011;32131;53.454;-6.180;2023-07-28T05:49:42;1.25;;;0.77;;
46429;SDS011;32131;53.454;-6.180;2023-07-28T05:52:10;5.97;;;0.80;;
46429;SDS011;32131;53.454;-6.180;2023-07-28T05:54:38;2.83;;;0.70;;
46429;SDS011;32131;53.454;-6.180;2023-07-28T05:57:07;3.92;;;0.82;;
46429;SDS011;32131;53.454;-6.180;2023-07-28T05:59:35;2.17;;;0.77;;
46429;SDS011;32131;53.454;-6.180;2023-07-28T06:02:05;2.88;;;0.82;;
46429;SDS011;32131;53.454;-6.180;2023-07-28T06:04:34;1.85;;;0.73;;
46429;SDS011;32131;53.454;-6.180;2023-07-28T06:07:02;3.45;;;0.68;;
46429;SDS011;32131;53.454;-6.180;2023-07-28T06:09:31;3.33;;;0.70;;
46429;SDS011;32131;53.454;-6.180;2023-07-28T06:11:59;4.45;;;0.90;;
46429;SDS011;32131;53.454;-6.180;2023-07-28T06:14:28;4.60;;;0.82;;
46429;SDS011;32131;53.454;-6.180;2023-07-28T06:16:56;4.05;;;0.95;;
46429;SDS011;32131;53.454;-6.180;2023-07-28T06:19:28;2.40;;;0.85;;
46429;SDS011;32131;53.454;-6.180;2023-07-28T06:21:56;3.38;;;0.90;;
46429;SDS011;32131;53.454;-6.180;2023-07-28T06:24:24;3.20;;;0.60;;
46429;SDS011;32131;53.454;-6.180;2023-07-28T06:26:53;6.03;;;0.88;;
46429;SDS011;32131;53.454;-6.180;2023-07-28T06:29:23;1.58;;;0.63;;
46429;SDS011;32131;53.454;-6.180;2023-07-28T06:31:53;5.60;;;0.80;;
46429;SDS011;32131;53.454;-6.180;2023-07-28T06:34:21;6.38;;;0.90;;
46429;SDS011;32131;53.454;-6.180;2023-07-28T06:36:51;1.60;;;0.63;;
46429;SDS011;32131;53.454;-6.180;2023-07-28T06:39:19;3.97;;;0.88;;
46429;SDS011;32131;53.454;-6.180;2023-07-28T06:41:47;2.42;;;0.95;;
46429;SDS011;32131;53.454;-6.180;2023-07-28T06:44:16;9.02;;;0.85;;
46429;SDS011;32131;53.454;-6.180;2023-07-28T06:46:44;2.15;;;1.05;;
46429;SDS011;32131;53.454;-6.180;2023-07-28T06:49:13;3.65;;;1.02;;
46429;SDS011;32131;53.454;-6.180;2023-07-28T06:51:42;5.10;;;0.80;;
46429;SDS011;32131;53.454;-6.180;2023-07-28T06:54:15;2.67;;;0.80;;
46429;SDS011;32131;53.454;-6.180;2023-07-28T06:56:43;1.40;;;0.77;;
46429;SDS011;32131;53.454;-6.180;2023-07-28T06:59:12;3.03;;;1.00;;
46429;SDS011;32131;53.454;-6.180;2023-07-28T07:01:47;2.85;;;1.08;;
46429;SDS011;32131;53.454;-6.180;2023-07-28T07:04:15;4.15;;;0.80;;
46429;SDS011;32131;53.454;-6.180;2023-07-28T07:06:43;2.88;;;0.85;;
46429;SDS011;32131;53.454;-6.180;2023-07-28T07:09:11;4.00;;;1.17;;
46429;SDS011;32131;53.454;-6.180;2023-07-28T07:11:42;2.13;;;0.93;;
46429;SDS011;32131;53.454;-6.180;2023-07-28T07:14:11;2.53;;;0.90;;
46429;SDS011;32131;53.454;-6.180;2023-07-28T07:16:41;6.20;;;1.15;;
46429;SDS011;32131;53.454;-6.180;2023-07-28T07:19:09;4.68;;;0.80;;
46429;SDS011;32131;53.454;-6.180;2023-07-28T07:21:37;3.42;;;0.95;;
46429;SDS011;32131;53.454;-6.180;2023-07-28T07:24:05;13.45;;;1.52;;
46429;SDS011;32131;53.454;-6.180;2023-07-28T07:26:34;6.22;;;1.08;;
46429;SDS011;32131;53.454;-6.180;2023-07-28T07:29:03;5.70;;;0.85;;
46429;SDS011;32131;53.454;-6.180;2023-07-28T07:31:32;3.28;;;1.52;;
46429;SDS011;32131;53.454;-6.180;2023-07-28T07:34:03;8.73;;;0.90;;
46429;SDS011;32131;53.454;-6.180;2023-07-28T07:36:31;3.85;;;0.80;;
46429;SDS011;32131;53.454;-6.180;2023-07-28T07:38:59;2.03;;;0.73;;
46429;SDS011;32131;53.454;-6.180;2023-07-28T07:41:28;0.98;;;0.55;;
46429;SDS011;32131;53.454;-6.180;2023-07-28T07:43:57;1.37;;;0.60;;
46429;SDS011;32131;53.454;-6.180;2023-07-28T07:46:26;2.35;;;0.80;;
46429;SDS011;32131;53.454;-6.180;2023-07-28T07:48:55;2.28;;;0.50;;
46429;SDS011;32131;53.454;-6.180;2023-07-28T07:51:23;4.07;;;1.08;;
46429;SDS011;32131;53.454;-6.180;2023-07-28T07:53:52;4.18;;;0.60;;
46429;SDS011;32131;53.454;-6.180;2023-07-28T07:56:20;1.45;;;0.57;;
46429;SDS011;32131;53.454;-6.180;2023-07-28T07:58:49;3.15;;;0.55;;
46429;SDS011;32131;53.454;-6.180;2023-07-28T08:01:19;0.98;;;0.43;;
46429;SDS011;32131;53.454;-6.180;2023-07-28T08:03:49;3.03;;;0.52;;
46429;SDS011;32131;53.454;-6.180;2023-07-28T08:06:17;4.90;;;0.73;;
46429;SDS011;32131;53.454;-6.180;2023-07-28T08:08:45;0.82;;;0.40;;
46429;SDS011;32131;53.454;-6.180;2023-07-28T08:13:44;2.05;;;0.60;;
46429;SDS011;32131;53.454;-6.180;2023-07-28T08:16:15;5.97;;;0.90;;
46429;SDS011;32131;53.454;-6.180;2023-07-28T08:18:47;5.43;;;0.95;;
46429;SDS011;32131;53.454;-6.180;2023-07-28T08:21:18;3.50;;;0.52;;
46429;SDS011;32131;53.454;-6.180;2023-07-28T08:23:47;1.95;;;0.60;;
46429;SDS011;32131;53.454;-6.180;2023-07-28T08:26:16;0.80;;;0.50;;
46429;SDS011;32131;53.454;-6.180;2023-07-28T08:28:44;4.10;;;0.73;;
46429;SDS011;32131;53.454;-6.180;2023-07-28T08:31:12;7.05;;;0.50;;
46429;SDS011;32131;53.454;-6.180;2023-07-28T08:33:41;2.95;;;0.80;;
46429;SDS011;32131;53.454;-6.180;2023-07-28T08:36:11;2.72;;;0.43;;
46429;SDS011;32131;53.454;-6.180;2023-07-28T08:41:11;2.15;;;0.47;;
46429;SDS011;32131;53.454;-6.180;2023-07-28T08:43:42;2.72;;;0.50;;
46429;SDS011;32131;53.454;-6.180;2023-07-28T08:46:10;1.33;;;0.45;;
46429;SDS011;32131;53.454;-6.180;2023-07-28T08:48:41;26.30;;;1.23;;
46429;SDS011;32131;53.454;-6.180;2023-07-28T08:51:11;1.38;;;0.30;;
46429;SDS011;32131;53.454;-6.180;2023-07-28T08:53:40;7.57;;;0.80;;
46429;SDS011;32131;53.454;-6.180;2023-07-28T08:56:09;5.07;;;0.50;;
46429;SDS011;32131;53.454;-6.180;2023-07-28T08:58:38;2.63;;;1.08;;
46429;SDS011;32131;53.454;-6.180;2023-07-28T09:01:08;0.93;;;0.38;;
46429;SDS011;32131;53.454;-6.180;2023-07-28T09:03:39;1.50;;;0.30;;
46429;SDS011;32131;53.454;-6.180;2023-07-28T09:06:13;0.85;;;0.40;;
46429;SDS011;32131;53.454;-6.180;2023-07-28T09:08:42;1.35;;;0.50;;
46429;SDS011;32131;53.454;-6.180;2023-07-28T09:11:12;0.60;;;0.40;;
46429;SDS011;32131;53.454;-6.180;2023-07-28T09:13:43;8.05;;;0.68;;
46429;SDS011;32131;53.454;-6.180;2023-07-28T09:16:18;1.20;;;0.60;;
46429;SDS011;32131;53.454;-6.180;2023-07-28T09:18:58;1.80;;;0.38;;
46429;SDS011;32131;53.454;-6.180;2023-07-28T09:21:39;2.28;;;0.57;;
46429;SDS011;32131;53.454;-6.180;2023-07-28T09:24:10;2.58;;;1.05;;
46429;SDS011;32131;53.454;-6.180;2023-07-28T09:26:40;2.10;;;0.47;;
46429;SDS011;32131;53.454;-6.180;2023-07-28T09:29:13;0.38;;;0.20;;
46429;SDS011;32131;53.454;-6.180;2023-07-28T09:31:42;3.22;;;0.47;;
46429;SDS011;32131;53.454;-6.180;2023-07-28T09:34:22;0.40;;;0.30;;
46429;SDS011;32131;53.454;-6.180;2023-07-28T09:36:54;1.42;;;0.60;;
46429;SDS011;32131;53.454;-6.180;2023-07-28T09:39:25;1.52;;;0.30;;
46429;SDS011;32131;53.454;-6.180;2023-07-28T09:41:55;2.95;;;0.50;;
46429;SDS011;32131;53.454;-6.180;2023-07-28T09:44:26;0.90;;;0.40;;
46429;SDS011;32131;53.454;-6.180;2023-07-28T09:46:56;1.42;;;0.60;;
46429;SDS011;32131;53.454;-6.180;2023-07-28T09:49:27;0.88;;;0.30;;
46429;SDS011;32131;53.454;-6.180;2023-07-28T09:52:00;1.55;;;0.43;;
46429;SDS011;32131;53.454;-6.180;2023-07-28T09:54:34;1.17;;;0.57;;
46429;SDS011;32131;53.454;-6.180;2023-07-28T09:57:07;0.70;;;0.30;;
46429;SDS011;32131;53.454;-6.180;2023-07-28T09:59:40;1.05;;;0.40;;
46429;SDS011;32131;53.454;-6.180;2023-07-28T10:02:09;0.50;;;0.20;;
46429;SDS011;32131;53.454;-6.180;2023-07-28T10:04:38;3.28;;;0.60;;
46429;SDS011;32131;53.454;-6.180;2023-07-28T10:07:11;2.33;;;0.35;;
46429;SDS011;32131;53.454;-6.180;2023-07-28T10:09:40;0.73;;;0.35;;
46429;SDS011;32131;53.454;-6.180;2023-07-28T10:12:17;0.80;;;0.35;;
46429;SDS011;32131;53.454;-6.180;2023-07-28T10:14:48;6.75;;;0.50;;
46429;SDS011;32131;53.454;-6.180;2023-07-28T10:17:31;0.55;;;0.28;;
46429;SDS011;32131;53.454;-6.180;2023-07-28T10:20:02;4.15;;;0.30;;
46429;SDS011;32131;53.454;-6.180;2023-07-28T10:22:44;1.23;;;0.38;;
46429;SDS011;32131;53.454;-6.180;2023-07-28T10:25:12;1.25;;;0.40;;
46429;SDS011;32131;53.454;-6.180;2023-07-28T10:27:50;0.95;;;0.40;;
46429;SDS011;32131;53.454;-6.180;2023-07-28T10:30:19;0.57;;;0.20;;
46429;SDS011;32131;53.454;-6.180;2023-07-28T10:32:47;0.68;;;0.30;;
46429;SDS011;32131;53.454;-6.180;2023-07-28T10:35:25;0.52;;;0.20;;
46429;SDS011;32131;53.454;-6.180;2023-07-28T10:37:57;0.68;;;0.32;;
46429;SDS011;32131;53.454;-6.180;2023-07-28T10:43:00;2.15;;;0.43;;
46429;SDS011;32131;53.454;-6.180;2023-07-28T10:45:30;1.30;;;0.45;;
46429;SDS011;32131;53.454;-6.180;2023-07-28T10:48:01;1.95;;;0.50;;
46429;SDS011;32131;53.454;-6.180;2023-07-28T10:50:30;5.07;;;0.45;;
46429;SDS011;32131;53.454;-6.180;2023-07-28T10:53:00;0.83;;;0.40;;
46429;SDS011;32131;53.454;-6.180;2023-07-28T10:55:29;1.48;;;0.60;;
46429;SDS011;32131;53.454;-6.180;2023-07-28T10:57:58;1.97;;;0.60;;
46429;SDS011;32131;53.454;-6.180;2023-07-28T11:00:27;1.20;;;0.47;;
46429;SDS011;32131;53.454;-6.180;2023-07-28T11:02:56;1.15;;;0.45;;
46429;SDS011;32131;53.454;-6.180;2023-07-28T11:05:26;2.97;;;0.63;;
46429;SDS011;32131;53.454;-6.180;2023-07-28T11:07:56;1.75;;;0.50;;
46429;SDS011;32131;53.454;-6.180;2023-07-28T11:10:29;2.17;;;0.57;;
46429;SDS011;32131;53.454;-6.180;2023-07-28T11:13:01;1.02;;;0.43;;
46429;SDS011;32131;53.454;-6.180;2023-07-28T11:15:49;0.98;;;0.40;;
46429;SDS011;32131;53.454;-6.180;2023-07-28T11:18:18;0.93;;;0.40;;
46429;SDS011;32131;53.454;-6.180;2023-07-28T11:20:47;1.63;;;1.23;;
46429;SDS011;32131;53.454;-6.180;2023-07-28T11:23:18;3.03;;;0.95;;
46429;SDS011;32131;53.454;-6.180;2023-07-28T11:25:49;1.73;;;0.50;;
46429;SDS011;32131;53.454;-6.180;2023-07-28T11:28:18;0.68;;;0.32;;
46429;SDS011;32131;53.454;-6.180;2023-07-28T11:30:47;2.25;;;0.47;;
46429;SDS011;32131;53.454;-6.180;2023-07-28T11:33:15;2.90;;;0.60;;
46429;SDS011;32131;53.454;-6.180;2023-07-28T11:35:44;3.75;;;0.82;;
46429;SDS011;32131;53.454;-6.180;2023-07-28T11:38:13;1.02;;;0.25;;
46429;SDS011;32131;53.454;-6.180;2023-07-28T11:40:42;0.38;;;0.15;;
46429;SDS011;32131;53.454;-6.180;2023-07-28T11:43:15;0.28;;;0.20;;
46429;SDS011;32131;53.454;-6.180;2023-07-28T11:45:44;2.15;;;0.60;;
46429;SDS011;32131;53.454;-6.180;2023-07-28T11:48:12;2.47;;;0.43;;
46429;SDS011;32131;53.454;-6.180;2023-07-28T11:50:44;1.73;;;0.50;;
46429;SDS011;32131;53.454;-6.180;2023-07-28T11:53:12;2.08;;;0.57;;
46429;SDS011;32131;53.454;-6.180;2023-07-28T11:55:41;1.95;;;0.60;;
46429;SDS011;32131;53.454;-6.180;2023-07-28T11:58:09;3.80;;;0.88;;
46429;SDS011;32131;53.454;-6.180;2023-07-28T12:03:10;2.50;;;0.55;;
46429;SDS011;32131;53.454;-6.180;2023-07-28T12:05:40;2.33;;;0.60;;
46429;SDS011;32131;53.454;-6.180;2023-07-28T12:08:12;1.50;;;0.50;;
46429;SDS011;32131;53.454;-6.180;2023-07-28T12:10:53;20.73;;;1.08;;
46429;SDS011;32131;53.454;-6.180;2023-07-28T12:13:25;0.88;;;0.35;;
46429;SDS011;32131;53.454;-6.180;2023-07-28T12:19:09;5.85;;;0.65;;
46429;SDS011;32131;53.454;-6.180;2023-07-28T12:21:38;2.40;;;0.70;;
46429;SDS011;32131;53.454;-6.180;2023-07-28T12:24:06;1.48;;;0.43;;
46429;SDS011;32131;53.454;-6.180;2023-07-28T12:26:35;3.25;;;0.90;;
46429;SDS011;32131;53.454;-6.180;2023-07-28T12:29:06;2.42;;;0.63;;
46429;SDS011;32131;53.454;-6.180;2023-07-28T12:31:38;1.15;;;0.40;;
46429;SDS011;32131;53.454;-6.180;2023-07-28T12:34:09;7.00;;;0.63;;
46429;SDS011;32131;53.454;-6.180;2023-07-28T12:36:51;1.27;;;0.45;;
46429;SDS011;32131;53.454;-6.180;2023-07-28T12:39:20;1.15;;;0.45;;
46429;SDS011;32131;53.454;-6.180;2023-07-28T12:41:54;1.35;;;0.60;;
46429;SDS011;32131;53.454;-6.180;2023-07-28T12:44:25;1.70;;;0.35;;
46429;SDS011;32131;53.454;-6.180;2023-07-28T12:46:58;6.88;;;0.77;;
46429;SDS011;32131;53.454;-6.180;2023-07-28T12:49:33;6.90;;;0.90;;
46429;SDS011;32131;53.454;-6.180;2023-07-28T12:52:04;1.77;;;0.50;;
46429;SDS011;32131;53.454;-6.180;2023-07-28T12:54:45;1.33;;;0.60;;
46429;SDS011;32131;53.454;-6.180;2023-07-28T12:57:14;1.92;;;0.70;;
46429;SDS011;32131;53.454;-6.180;2023-07-28T12:59:42;1.95;;;0.70;;
46429;SDS011;32131;53.454;-6.180;2023-07-28T13:02:15;2.00;;;0.52;;
46429;SDS011;32131;53.454;-6.180;2023-07-28T13:04:44;7.45;;;1.23;;
46429;SDS011;32131;53.454;-6.180;2023-07-28T13:07:12;1.35;;;0.50;;
46429;SDS011;32131;53.454;-6.180;2023-07-28T13:10:01;2.72;;;0.50;;
46429;SDS011;32131;53.454;-6.180;2023-07-28T13:12:32;1.25;;;0.40;;
46429;SDS011;32131;53.454;-6.180;2023-07-28T13:15:04;4.43;;;0.55;;
46429;SDS011;32131;53.454;-6.180;2023-07-28T13:17:44;0.93;;;0.38;;
46429;SDS011;32131;53.454;-6.180;2023-07-28T13:20:13;2.10;;;0.50;;
46429;SDS011;32131;53.454;-6.180;2023-07-28T13:22:42;4.63;;;0.70;;
46429;SDS011;32131;53.454;-6.180;2023-07-28T13:25:11;1.23;;;0.70;;
46429;SDS011;32131;53.454;-6.180;2023-07-28T13:27:41;5.18;;;0.85;;
46429;SDS011;32131;53.454;-6.180;2023-07-28T13:30:10;1.33;;;0.50;;
46429;SDS011;32131;53.454;-6.180;2023-07-28T13:32:41;1.40;;;0.50;;
46429;SDS011;32131;53.454;-6.180;2023-07-28T13:35:11;7.25;;;0.70;;
46429;SDS011;32131;53.454;-6.180;2023-07-28T13:37:41;3.17;;;0.70;;
46429;SDS011;32131;53.454;-6.180;2023-07-28T13:40:11;6.18;;;0.77;;
46429;SDS011;32131;53.454;-6.180;2023-07-28T13:42:39;2.80;;;0.80;;
46429;SDS011;32131;53.454;-6.180;2023-07-28T13:45:10;2.10;;;0.77;;
46429;SDS011;32131;53.454;-6.180;2023-07-28T13:47:40;2.03;;;0.83;;
46429;SDS011;32131;53.454;-6.180;2023-07-28T13:50:09;3.35;;;0.85;;
46429;SDS011;32131;53.454;-6.180;2023-07-28T13:52:37;2.78;;;0.80;;
46429;SDS011;32131;53.454;-6.180;2023-07-28T13:55:06;3.38;;;0.80;;
46429;SDS011;32131;53.454;-6.180;2023-07-28T13:57:39;2.88;;;1.08;;
46429;SDS011;32131;53.454;-6.180;2023-07-28T14:00:08;6.03;;;1.33;;
46429;SDS011;32131;53.454;-6.180;2023-07-28T14:02:39;3.25;;;0.82;;
46429;SDS011;32131;53.454;-6.180;2023-07-28T14:05:09;1.27;;;0.43;;
46429;SDS011;32131;53.454;-6.180;2023-07-28T14:07:37;2.17;;;0.75;;
46429;SDS011;32131;53.454;-6.180;2023-07-28T14:10:06;1.38;;;0.38;;
46429;SDS011;32131;53.454;-6.180;2023-07-28T14:12:34;2.75;;;0.68;;
46429;SDS011;32131;53.454;-6.180;2023-07-28T14:15:03;0.98;;;0.43;;
46429;SDS011;32131;53.454;-6.180;2023-07-28T14:17:34;0.45;;;0.25;;
46429;SDS011;32131;53.454;-6.180;2023-07-28T14:20:05;3.00;;;0.20;;
46429;SDS011;32131;53.454;-6.180;2023-07-28T14:22:34;1.25;;;0.30;;
46429;SDS011;32131;53.454;-6.180;2023-07-28T14:25:04;0.20;;;0.20;;
46429;SDS011;32131;53.454;-6.180;2023-07-28T14:27:33;0.98;;;0.25;;
46429;SDS011;32131;53.454;-6.180;2023-07-28T14:30:03;1.33;;;0.60;;
46429;SDS011;32131;53.454;-6.180;2023-07-28T14:32:34;1.08;;;0.25;;
46429;SDS011;32131;53.454;-6.180;2023-07-28T14:37:32;0.55;;;0.32;;
46429;SDS011;32131;53.454;-6.180;2023-07-28T14:40:00;2.95;;;0.40;;
46429;SDS011;32131;53.454;-6.180;2023-07-28T14:42:29;2.25;;;0.40;;
46429;SDS011;32131;53.454;-6.180;2023-07-28T14:44:57;0.85;;;0.55;;
46429;SDS011;32131;53.454;-6.180;2023-07-28T14:47:26;2.35;;;0.40;;
46429;SDS011;32131;53.454;-6.180;2023-07-28T14:49:54;1.25;;;0.50;;
46429;SDS011;32131;53.454;-6.180;2023-07-28T14:54:54;1.45;;;0.60;;
46429;SDS011;32131;53.454;-6.180;2023-07-28T14:57:23;2.03;;;0.63;;
46429;SDS011;32131;53.454;-6.180;2023-07-28T15:00:00;1.70;;;0.70;;
46429;SDS011;32131;53.454;-6.180;2023-07-28T15:02:32;0.45;;;0.22;;
46429;SDS011;32131;53.454;-6.180;2023-07-28T15:05:04;0.90;;;0.30;;
46429;SDS011;32131;53.454;-6.180;2023-07-28T15:07:35;1.35;;;0.50;;
46429;SDS011;32131;53.454;-6.180;2023-07-28T15:10:03;1.65;;;0.40;;
46429;SDS011;32131;53.454;-6.180;2023-07-28T15:12:32;0.85;;;0.32;;